createdAt,value
2019-03-27T00:00:13.725Z,65.90
2019-03-27T00:02:43.991Z,66.00
2019-03-27T00:05:14.534Z,66.10
2019-03-27T00:07:44.722Z,65.80
2019-03-27T00:10:15.261Z,66.60
2019-03-27T00:12:45.410Z,66.40
2019-03-27T00:15:15.705Z,66.40
2019-03-27T00:17:46.178Z,66.60
2019-03-27T00:20:16.732Z,67.50
2019-03-27T00:22:46.920Z,66.90
2019-03-27T00:25:17.213Z,66.80
2019-03-27T00:27:47.454Z,67.30
2019-03-27T00:30:17.657Z,67.10
2019-03-27T00:32:48.009Z,68.10
2019-03-27T00:35:18.204Z,69.00
2019-03-27T00:37:51.236Z,69.80
2019-03-27T00:40:21.440Z,71.30
2019-03-27T00:42:51.599Z,73.30
2019-03-27T00:45:26.796Z,73.70
2019-03-27T00:47:53.712Z,74.70
2019-03-27T00:50:23.940Z,75.70
2019-03-27T00:52:54.139Z,77.50
2019-03-27T00:55:24.412Z,77.60
2019-03-27T00:57:54.549Z,79.30
2019-03-27T01:00:29.335Z,79.20
2019-03-27T01:02:59.602Z,79.20
2019-03-27T01:05:29.815Z,79.70
2019-03-27T01:08:00.064Z,80.00
2019-03-27T01:10:30.262Z,80.60
2019-03-27T01:13:00.451Z,80.70
2019-03-27T01:15:39.672Z,80.60
2019-03-27T01:18:05.050Z,80.70
2019-03-27T01:20:35.231Z,81.30
2019-03-27T01:23:08.630Z,81.40
2019-03-27T01:25:38.947Z,82.00
2019-03-27T01:28:10.289Z,81.20
2019-03-27T01:30:41.017Z,81.30
2019-03-27T01:33:11.242Z,81.40
2019-03-27T01:35:41.871Z,82.00
2019-03-27T01:38:12.767Z,82.40
2019-03-27T01:40:43.256Z,82.00
2019-03-27T01:43:13.964Z,81.90
2019-03-27T01:45:53.087Z,82.10
2019-03-27T01:48:17.576Z,82.10
2019-03-27T01:50:48.319Z,82.90
2019-03-27T01:53:19.291Z,82.80
2019-03-27T01:55:49.497Z,83.00
2019-03-27T01:58:20.402Z,82.70
2019-03-27T02:00:50.608Z,82.70
2019-03-27T02:03:21.460Z,83.10
2019-03-27T02:05:51.655Z,83.30
2019-03-27T02:08:25.360Z,83.70
2019-03-27T02:10:55.749Z,84.10
2019-03-27T02:13:26.010Z,84.20
2019-03-27T02:16:06.339Z,84.30
2019-03-27T02:18:28.727Z,84.60
2019-03-27T02:20:58.876Z,84.70
2019-03-27T02:23:29.422Z,84.70
2019-03-27T02:25:59.595Z,85.40
2019-03-27T02:28:31.806Z,85.60
2019-03-27T02:31:01.982Z,85.70
2019-03-27T02:33:32.178Z,86.20
2019-03-27T02:36:02.323Z,86.80
2019-03-27T02:38:33.251Z,87.50
2019-03-27T02:41:03.340Z,87.80
2019-03-27T02:43:34.244Z,88.50
2019-03-27T02:46:04.499Z,89.00
2019-03-27T02:48:35.426Z,89.20
2019-03-27T02:51:05.612Z,89.10
2019-03-27T02:53:36.137Z,89.80
2019-03-27T02:56:06.233Z,90.10
2019-03-27T02:58:36.856Z,90.30
2019-03-27T03:01:07.363Z,90.40
2019-03-27T03:03:38.767Z,90.50
2019-03-27T03:06:09.195Z,90.60
2019-03-27T03:08:39.965Z,90.90
2019-03-27T03:11:10.200Z,91.10
2019-03-27T03:13:43.038Z,91.20
2019-03-27T03:16:13.331Z,91.20
2019-03-27T03:18:46.474Z,91.40
2019-03-27T03:21:16.751Z,91.70
2019-03-27T03:23:46.914Z,91.80
2019-03-27T03:26:17.164Z,91.90
2019-03-27T03:28:47.891Z,91.90
2019-03-27T03:31:18.427Z,91.90
2019-03-27T03:33:50.389Z,92.00
2019-03-27T03:36:22.405Z,92.10
2019-03-27T03:38:53.318Z,91.90
2019-03-27T03:41:23.537Z,92.30
2019-03-27T03:43:54.446Z,92.20
2019-03-27T03:46:24.877Z,92.20
2019-03-27T03:48:55.743Z,92.30
2019-03-27T03:51:26.013Z,92.50
2019-03-27T03:53:57.141Z,92.50
2019-03-27T03:56:29.219Z,92.60
2019-03-27T03:59:01.311Z,92.80
2019-03-27T04:01:33.572Z,92.80
2019-03-27T04:04:05.502Z,92.80
2019-03-27T04:06:35.788Z,93.20
2019-03-27T04:09:07.243Z,92.80
2019-03-27T04:11:37.528Z,92.80
2019-03-27T04:14:07.750Z,92.70
2019-03-27T04:16:40.224Z,92.60
2019-03-27T04:19:10.998Z,92.70
2019-03-27T04:21:41.184Z,92.60
2019-03-27T04:24:12.073Z,92.90
2019-03-27T04:26:42.884Z,93.00
2019-03-27T04:29:13.125Z,93.40
2019-03-27T04:31:43.300Z,93.20
2019-03-27T04:34:14.118Z,93.10
2019-03-27T04:36:44.366Z,93.50
2019-03-27T04:39:15.267Z,93.50
2019-03-27T04:41:45.325Z,93.80
2019-03-27T04:44:15.949Z,93.80
2019-03-27T04:46:46.987Z,93.90
2019-03-27T04:49:17.447Z,93.90
2019-03-27T04:51:47.590Z,94.00
2019-03-27T04:54:17.850Z,94.40
2019-03-27T04:56:48.119Z,94.40
2019-03-27T04:59:18.482Z,94.50
2019-03-27T05:01:48.651Z,94.30
2019-03-27T05:04:18.896Z,94.10
2019-03-27T05:06:49.693Z,94.20
2019-03-27T05:09:20.022Z,94.40
2019-03-27T05:11:52.074Z,94.40
2019-03-27T05:14:22.624Z,94.40
2019-03-27T05:16:52.776Z,94.20
2019-03-27T05:19:23.127Z,94.40
2019-03-27T05:21:53.382Z,94.60
2019-03-27T05:24:23.603Z,94.50
2019-03-27T05:26:53.820Z,94.60
2019-03-27T05:29:24.664Z,94.60
2019-03-27T05:31:55.976Z,94.90
2019-03-27T05:34:26.969Z,94.60
2019-03-27T05:36:57.141Z,94.60
2019-03-27T05:39:27.434Z,94.50
2019-03-27T05:41:57.825Z,94.40
2019-03-27T05:44:28.135Z,94.70
2019-03-27T05:46:58.369Z,94.50
2019-03-27T05:49:29.660Z,94.80
2019-03-27T05:52:00.037Z,94.80
2019-03-27T05:54:30.326Z,94.60
2019-03-27T05:57:00.541Z,94.70
2019-03-27T05:59:31.085Z,94.30
2019-03-27T06:02:01.874Z,94.50
2019-03-27T06:04:32.150Z,94.50
2019-03-27T06:07:02.388Z,94.60
2019-03-27T06:09:32.648Z,94.70
2019-03-27T06:12:03.036Z,94.50
2019-03-27T06:14:33.699Z,94.50
2019-03-27T06:17:03.890Z,94.60
2019-03-27T06:19:34.215Z,94.90
2019-03-27T06:22:05.055Z,95.00
2019-03-27T06:24:36.128Z,95.00
2019-03-27T06:27:06.533Z,94.90
2019-03-27T06:29:38.421Z,94.70
2019-03-27T06:32:08.952Z,94.70
2019-03-27T06:34:39.598Z,94.80
2019-03-27T06:37:09.897Z,94.50
2019-03-27T06:39:40.355Z,94.60
2019-03-27T06:42:10.712Z,94.80
2019-03-27T06:44:41.260Z,94.80
2019-03-27T06:47:11.430Z,94.50
2019-03-27T06:49:42.008Z,94.70
2019-03-27T06:52:12.424Z,94.90
2019-03-27T06:54:42.844Z,94.60
2019-03-27T06:57:13.043Z,94.60
2019-03-27T06:59:43.811Z,94.40
2019-03-27T07:02:14.300Z,94.40
2019-03-27T07:04:44.558Z,94.40
2019-03-27T07:07:14.786Z,94.40
2019-03-27T07:09:45.424Z,94.20
2019-03-27T07:12:21.357Z,94.30
2019-03-27T07:14:49.242Z,93.80
2019-03-27T07:17:19.467Z,93.70
2019-03-27T07:19:50.191Z,93.70
2019-03-27T07:22:21.202Z,93.80
2019-03-27T07:24:51.835Z,93.60
2019-03-27T07:27:22.240Z,93.70
2019-03-27T07:29:52.688Z,93.90
2019-03-27T07:32:23.121Z,94.00
2019-03-27T07:34:53.476Z,94.00
2019-03-27T07:37:23.781Z,94.10
2019-03-27T07:39:54.044Z,94.10
2019-03-27T07:42:24.437Z,94.30
2019-03-27T07:44:55.230Z,94.40
2019-03-27T07:47:25.589Z,94.40
2019-03-27T07:49:55.985Z,94.30
2019-03-27T07:52:26.523Z,94.30
2019-03-27T07:54:56.814Z,94.40
2019-03-27T07:57:28.124Z,93.80
2019-03-27T08:00:00.452Z,93.80
2019-03-27T08:02:31.558Z,93.80
2019-03-27T08:05:01.818Z,93.80
2019-03-27T08:07:32.014Z,94.10
2019-03-27T08:10:02.878Z,93.40
2019-03-27T08:12:34.483Z,93.40
2019-03-27T08:15:05.771Z,93.60
2019-03-27T08:17:36.661Z,93.70
2019-03-27T08:20:09.042Z,93.60
2019-03-27T08:22:39.785Z,93.50
2019-03-27T08:25:10.404Z,93.10
2019-03-27T08:27:40.620Z,93.10
2019-03-27T08:30:13.348Z,92.90
2019-03-27T08:32:44.521Z,93.00
2019-03-27T08:35:15.229Z,93.00
2019-03-27T08:37:45.373Z,92.00
2019-03-27T08:40:16.991Z,92.40
2019-03-27T08:42:47.312Z,91.90
2019-03-27T08:45:18.399Z,91.60
2019-03-27T08:47:48.654Z,91.50
2019-03-27T08:50:20.308Z,91.80
2019-03-27T08:52:50.706Z,91.60
2019-03-27T08:55:21.165Z,91.30
2019-03-27T08:57:52.409Z,91.40
2019-03-27T09:00:40.899Z,91.40
2019-03-27T09:03:11.417Z,91.10
2019-03-27T09:05:41.695Z,91.20
2019-03-27T09:08:12.393Z,91.30
2019-03-27T09:10:42.563Z,91.30
2019-03-27T09:13:13.030Z,91.00
2019-03-27T09:15:43.209Z,91.30
2019-03-27T09:18:17.092Z,90.70
2019-03-27T09:20:47.264Z,90.90
2019-03-27T09:23:17.877Z,90.20
2019-03-27T09:25:48.091Z,90.10
2019-03-27T09:28:19.437Z,89.30
2019-03-27T09:30:49.645Z,88.80
2019-03-27T09:33:20.133Z,89.40
2019-03-27T09:35:50.322Z,86.60
2019-03-27T09:38:20.743Z,85.10
2019-03-27T09:40:51.089Z,83.90
2019-03-27T09:43:21.582Z,82.60
2019-03-27T09:45:51.911Z,82.90
2019-03-27T09:48:25.983Z,80.40
2019-03-27T09:50:56.375Z,81.40
2019-03-27T09:53:26.636Z,81.80
2019-03-27T09:55:56.908Z,81.70
2019-03-27T09:58:29.074Z,80.90
2019-03-27T10:01:05.309Z,78.90
2019-03-27T10:03:35.754Z,79.10
2019-03-27T10:06:06.173Z,78.90
2019-03-27T10:08:37.392Z,78.90
2019-03-27T10:11:07.682Z,79.60
2019-03-27T10:13:38.241Z,80.20
2019-03-27T10:16:08.709Z,79.50
2019-03-27T10:18:38.992Z,80.00
2019-03-27T10:21:09.323Z,79.80
2019-03-27T10:23:40.851Z,80.20
2019-03-27T10:26:11.388Z,79.80
2019-03-27T10:28:42.280Z,79.70
2019-03-27T10:31:12.780Z,81.50
2019-03-27T10:33:45.127Z,80.10
2019-03-27T10:36:15.585Z,80.90
2019-03-27T10:38:46.472Z,82.20
2019-03-27T10:41:17.197Z,82.40
2019-03-27T10:43:48.934Z,82.80
2019-03-27T10:46:19.769Z,83.70
2019-03-27T10:48:52.720Z,83.10
2019-03-27T10:51:22.528Z,83.70
2019-03-27T10:53:53.483Z,83.80
2019-03-27T10:56:23.970Z,84.30
2019-03-27T10:58:54.871Z,84.60
2019-03-27T11:01:25.409Z,84.00
2019-03-27T11:03:56.395Z,83.30
2019-03-27T11:06:26.843Z,84.00
2019-03-27T11:08:57.777Z,84.40
2019-03-27T11:11:28.163Z,84.30
2019-03-27T11:13:58.355Z,83.90
2019-03-27T11:16:28.675Z,82.00
2019-03-27T11:18:59.886Z,81.70
2019-03-27T11:21:30.551Z,82.60
2019-03-27T11:24:01.018Z,82.00
2019-03-27T11:26:31.225Z,82.10
2019-03-27T11:29:01.509Z,80.50
2019-03-27T11:31:32.259Z,80.20
2019-03-27T11:34:03.408Z,79.50
2019-03-27T11:36:35.288Z,79.20
2019-03-27T11:39:09.482Z,79.90
2019-03-27T11:41:40.324Z,79.50
2019-03-27T11:44:12.745Z,77.80
2019-03-27T11:46:43.112Z,76.20
2019-03-27T11:49:13.811Z,75.10
2019-03-27T11:51:44.061Z,74.00
2019-03-27T11:54:14.904Z,74.00
2019-03-27T11:56:45.649Z,75.60
2019-03-27T11:59:16.994Z,74.50
2019-03-27T12:01:47.170Z,74.90
2019-03-27T12:04:17.584Z,74.00
2019-03-27T12:06:47.753Z,73.90
2019-03-27T12:09:18.151Z,73.80
2019-03-27T12:11:48.464Z,74.50
2019-03-27T12:14:18.756Z,75.00
2019-03-27T12:16:50.165Z,74.50
2019-03-27T12:19:21.184Z,73.40
2019-03-27T12:21:54.694Z,72.90
2019-03-27T12:24:24.710Z,74.60
2019-03-27T12:26:55.625Z,73.00
2019-03-27T12:29:26.605Z,73.60
2019-03-27T12:31:56.804Z,74.60
2019-03-27T12:34:27.937Z,75.00
2019-03-27T12:36:58.191Z,75.10
2019-03-27T12:39:28.943Z,75.00
2019-03-27T12:41:59.252Z,74.00
2019-03-27T12:44:29.599Z,74.90
2019-03-27T12:46:59.800Z,74.00
2019-03-27T12:49:31.132Z,75.00
2019-03-27T12:52:01.874Z,75.90
2019-03-27T12:54:32.830Z,75.20
2019-03-27T12:57:03.030Z,74.80
2019-03-27T12:59:33.935Z,73.50
2019-03-27T13:02:05.542Z,73.80
2019-03-27T13:04:35.723Z,72.50
2019-03-27T13:07:06.040Z,70.50
2019-03-27T13:09:36.785Z,71.70
2019-03-27T13:12:07.102Z,69.70
2019-03-27T13:14:37.882Z,70.00
2019-03-27T13:17:08.334Z,69.80
2019-03-27T13:19:38.999Z,68.30
2019-03-27T13:22:09.350Z,69.20
2019-03-27T13:24:40.156Z,67.90
2019-03-27T13:27:10.446Z,68.00
2019-03-27T13:29:40.622Z,68.70
2019-03-27T13:32:10.869Z,67.90
2019-03-27T13:34:41.223Z,67.30
2019-03-27T13:37:11.408Z,66.10
2019-03-27T13:39:41.997Z,65.80
2019-03-27T13:42:12.409Z,65.60
2019-03-27T13:44:43.087Z,65.30
2019-03-27T13:47:13.511Z,66.30
2019-03-27T13:49:44.257Z,65.60
2019-03-27T13:52:14.893Z,64.90
2019-03-27T13:54:45.076Z,64.20
2019-03-27T13:57:15.390Z,64.60
2019-03-27T13:59:46.148Z,63.70
2019-03-27T14:02:16.438Z,65.10
2019-03-27T14:04:47.188Z,65.50
2019-03-27T14:07:17.491Z,66.50
2019-03-27T14:09:48.078Z,68.50
2019-03-27T14:12:18.350Z,67.80
2019-03-27T14:14:50.484Z,68.60
2019-03-27T14:17:21.441Z,68.20
2019-03-27T14:19:51.570Z,68.00
2019-03-27T14:22:22.078Z,65.90
2019-03-27T14:24:52.994Z,65.60
2019-03-27T14:27:23.570Z,66.30
2019-03-27T14:29:54.435Z,66.00
2019-03-27T14:32:24.719Z,66.10
2019-03-27T14:34:55.085Z,66.70
2019-03-27T14:37:25.308Z,68.20
2019-03-27T14:39:55.781Z,67.20
2019-03-27T14:42:26.075Z,64.90
2019-03-27T14:44:56.266Z,65.40
2019-03-27T14:47:26.604Z,65.70
2019-03-27T14:49:56.854Z,67.50
2019-03-27T14:52:27.032Z,68.10
2019-03-27T14:54:57.772Z,67.80
2019-03-27T14:57:27.994Z,67.00
2019-03-27T14:59:58.870Z,64.70
2019-03-27T15:02:29.162Z,65.50
2019-03-27T15:04:59.943Z,66.40
2019-03-27T15:07:30.256Z,66.10
2019-03-27T15:10:00.476Z,66.80
2019-03-27T15:12:30.662Z,66.00
2019-03-27T15:15:01.140Z,66.00
2019-03-27T15:17:31.336Z,64.60
2019-03-27T15:20:02.027Z,65.20
2019-03-27T15:22:32.283Z,65.00
2019-03-27T15:25:02.554Z,63.50
2019-03-27T15:27:32.852Z,66.10
2019-03-27T15:30:03.622Z,65.60
2019-03-27T15:32:33.798Z,66.20
2019-03-27T15:35:04.094Z,66.60
2019-03-27T15:37:34.454Z,66.60
2019-03-27T15:40:06.066Z,66.10
2019-03-27T15:42:36.287Z,65.50
2019-03-27T15:45:07.713Z,64.80
2019-03-27T15:47:37.905Z,65.10
2019-03-27T15:50:08.342Z,64.20
2019-03-27T15:52:38.594Z,63.60
2019-03-27T15:55:08.942Z,62.20
2019-03-27T15:57:39.226Z,62.30
2019-03-27T16:00:10.747Z,62.50
2019-03-27T16:02:40.922Z,62.50
2019-03-27T16:05:11.082Z,63.30
2019-03-27T16:07:41.267Z,63.70
2019-03-27T16:10:12.513Z,64.30
2019-03-27T16:12:42.806Z,65.20
2019-03-27T16:15:13.272Z,65.40
2019-03-27T16:17:43.901Z,65.90
2019-03-27T16:20:14.107Z,66.60
2019-03-27T16:22:50.983Z,68.00
2019-03-27T16:25:18.030Z,68.20
2019-03-27T16:27:48.120Z,68.70
2019-03-27T16:30:18.532Z,69.70
2019-03-27T16:32:48.791Z,69.10
2019-03-27T16:35:19.089Z,68.40
2019-03-27T16:37:50.261Z,68.20
2019-03-27T16:40:39.925Z,68.40
2019-03-27T16:43:10.037Z,68.30
2019-03-27T16:45:40.281Z,69.10
2019-03-27T16:48:10.616Z,69.20
2019-03-27T16:50:40.845Z,69.20
2019-03-27T16:53:10.999Z,69.80
2019-03-27T16:55:41.108Z,69.20
2019-03-27T16:58:11.548Z,69.00
2019-03-27T17:00:43.216Z,69.80
2019-03-27T17:03:14.376Z,70.10
2019-03-27T17:05:53.884Z,70.60
2019-03-27T17:08:16.636Z,69.70
2019-03-27T17:10:46.778Z,70.70
2019-03-27T17:13:16.971Z,70.40
2019-03-27T17:15:47.133Z,70.90
2019-03-27T17:18:17.432Z,70.40
2019-03-27T17:20:47.591Z,71.20
2019-03-27T17:23:19.110Z,71.50
2019-03-27T17:25:50.268Z,72.60
2019-03-27T17:28:22.582Z,72.30
2019-03-27T17:30:52.725Z,72.90
2019-03-27T17:33:23.143Z,72.70
2019-03-27T17:35:53.386Z,71.90
2019-03-27T17:38:23.545Z,72.00
2019-03-27T17:40:54.232Z,72.50
2019-03-27T17:43:24.331Z,73.60
2019-03-27T17:45:54.451Z,72.40
2019-03-27T17:48:25.783Z,72.80
2019-03-27T17:50:56.280Z,72.80
2019-03-27T17:53:32.000Z,73.50
2019-03-27T17:55:59.165Z,73.80
2019-03-27T17:58:33.385Z,72.80
2019-03-27T18:01:05.153Z,73.60
2019-03-27T18:03:35.228Z,73.50
2019-03-27T18:06:05.444Z,73.10
2019-03-27T18:08:35.603Z,74.80
2019-03-27T18:11:08.122Z,74.10
2019-03-27T18:13:39.271Z,74.30
2019-03-27T18:16:09.474Z,74.40
2019-03-27T18:18:39.669Z,75.50
2019-03-27T18:21:10.808Z,74.50
2019-03-27T18:23:46.157Z,74.80
2019-03-27T18:26:13.333Z,74.20
2019-03-27T18:28:43.716Z,74.00
2019-03-27T18:31:13.838Z,74.60
2019-03-27T18:33:43.904Z,73.70
2019-03-27T18:36:14.180Z,73.90
2019-03-27T18:38:45.900Z,72.90
2019-03-27T18:41:16.505Z,73.00
2019-03-27T18:43:46.557Z,73.90
2019-03-27T18:46:16.736Z,73.20
2019-03-27T18:48:46.817Z,72.30
2019-03-27T18:51:17.792Z,72.60
2019-03-27T18:53:58.822Z,72.00
2019-03-27T18:56:19.914Z,73.20
2019-03-27T18:58:50.068Z,72.70
2019-03-27T19:01:20.674Z,72.60
2019-03-27T19:03:51.410Z,72.90
2019-03-27T19:06:21.707Z,72.80
2019-03-27T19:08:51.941Z,72.40
2019-03-27T19:11:22.243Z,72.10
2019-03-27T19:13:52.589Z,72.40
2019-03-27T19:16:23.907Z,71.90
2019-03-27T19:18:54.127Z,73.20
2019-03-27T19:21:25.341Z,72.20
2019-03-27T19:23:56.026Z,71.70
2019-03-27T19:26:26.634Z,72.10
2019-03-27T19:28:56.902Z,72.20
2019-03-27T19:31:27.221Z,72.50
2019-03-27T19:33:57.981Z,72.10
2019-03-27T19:36:28.346Z,72.30
2019-03-27T19:38:58.826Z,72.50
2019-03-27T19:41:29.224Z,72.70
2019-03-27T19:43:59.762Z,72.60
2019-03-27T19:46:30.119Z,71.60
2019-03-27T19:49:00.310Z,72.20
2019-03-27T19:51:31.082Z,71.90
2019-03-27T19:54:02.465Z,72.00
2019-03-27T19:56:32.685Z,73.20
2019-03-27T19:59:03.142Z,72.80
2019-03-27T20:01:34.705Z,72.40
2019-03-27T20:04:05.423Z,72.90
2019-03-27T20:06:35.788Z,72.70
2019-03-27T20:09:08.005Z,71.60
2019-03-27T20:11:38.427Z,72.20
2019-03-27T20:14:09.045Z,72.60
2019-03-27T20:16:39.364Z,72.80
2019-03-27T20:19:10.065Z,72.80
2019-03-27T20:21:40.807Z,72.40
2019-03-27T20:24:11.651Z,73.00
2019-03-27T20:26:42.518Z,73.50
2019-03-27T20:29:13.499Z,73.60
2019-03-27T20:31:44.341Z,73.40
2019-03-27T20:34:14.988Z,73.30
2019-03-27T20:36:45.825Z,73.40
2019-03-27T20:39:17.266Z,73.70
2019-03-27T20:41:47.757Z,73.30
2019-03-27T20:44:18.052Z,73.70
2019-03-27T20:46:48.246Z,74.80
2019-03-27T20:49:18.640Z,74.30
2019-03-27T20:51:49.334Z,74.80
2019-03-27T20:54:19.539Z,74.40
2019-03-27T20:56:49.695Z,74.10
2019-03-27T20:59:19.962Z,73.90
2019-03-27T21:01:50.648Z,73.20
2019-03-27T21:04:20.933Z,73.70
2019-03-27T21:06:51.228Z,74.70
2019-03-27T21:09:21.576Z,74.40
2019-03-27T21:11:51.809Z,75.10
2019-03-27T21:14:22.046Z,75.30
2019-03-27T21:16:52.198Z,75.40
2019-03-27T21:19:22.704Z,75.70
2019-03-27T21:21:52.838Z,75.90
2019-03-27T21:24:23.254Z,75.80
2019-03-27T21:26:53.495Z,75.80
2019-03-27T21:29:23.768Z,75.50
2019-03-27T21:31:54.660Z,75.80
2019-03-27T21:34:25.054Z,76.00
2019-03-27T21:36:56.236Z,77.00
2019-03-27T21:39:26.484Z,76.40
2019-03-27T21:41:56.747Z,76.30
2019-03-27T21:44:27.070Z,76.70
2019-03-27T21:46:57.218Z,76.80
2019-03-27T21:49:27.493Z,77.70
2019-03-27T21:51:57.769Z,77.10
2019-03-27T21:54:28.042Z,77.80
2019-03-27T21:56:58.944Z,77.70
2019-03-27T21:59:29.695Z,77.40
2019-03-27T22:02:00.568Z,78.00
2019-03-27T22:04:31.310Z,77.40
2019-03-27T22:07:01.688Z,77.20
2019-03-27T22:09:31.920Z,76.60
2019-03-27T22:12:02.026Z,76.10
2019-03-27T22:14:32.365Z,77.00
2019-03-27T22:17:02.484Z,77.40
2019-03-27T22:19:32.730Z,77.60
2019-03-27T22:22:02.949Z,77.30
2019-03-27T22:27:09.208Z,77.30
2019-03-27T22:29:39.566Z,77.60
2019-03-27T22:32:10.261Z,77.60
2019-03-27T22:34:40.480Z,78.00
2019-03-27T22:37:11.798Z,78.20
2019-03-27T22:39:42.068Z,77.70
2019-03-27T22:42:12.856Z,77.30
2019-03-27T22:44:43.699Z,77.70
2019-03-27T22:47:14.035Z,77.00
2019-03-27T22:49:44.925Z,77.30
2019-03-27T22:52:15.775Z,77.90
2019-03-27T22:54:46.085Z,77.40
2019-03-27T22:57:16.913Z,77.50
2019-03-27T22:59:48.969Z,77.40
2019-03-27T23:02:19.236Z,77.50
2019-03-27T23:04:49.616Z,77.70
2019-03-27T23:07:22.482Z,78.10
2019-03-27T23:09:52.751Z,77.60
2019-03-27T23:12:23.608Z,77.90
2019-03-27T23:14:54.743Z,78.40
2019-03-27T23:17:24.964Z,78.60
2019-03-27T23:19:58.010Z,79.20
2019-03-27T23:22:28.905Z,78.40
2019-03-27T23:25:00.901Z,78.40
2019-03-27T23:27:31.741Z,77.70
2019-03-27T23:30:02.004Z,78.10
2019-03-27T23:32:32.446Z,78.30
2019-03-27T23:35:04.593Z,78.80
2019-03-27T23:37:35.036Z,78.60
2019-03-27T23:40:06.807Z,78.90
2019-03-27T23:42:38.272Z,78.70
2019-03-27T23:45:09.669Z,78.80
2019-03-27T23:47:39.764Z,78.30
2019-03-27T23:50:10.403Z,79.00
2019-03-27T23:52:40.537Z,78.30
2019-03-27T23:55:10.835Z,78.20
2019-03-27T23:57:41.011Z,77.80
